Time;durP1;ratioP1;P1;durP2;ratioP2;P2;SDS_P1;SDS_P2;PMS_P1;PMS_P2;Temp;Humidity;BMP_temperature;BMP_pressure;BME280_temperature;BME280_humidity;BME280_pressure;Samples;Min_cycle;Max_cycle;Signal;HPM_P1;HPM_P2
2023/10/30 00:01:38;;;;;;;10.85;1.77;;;;;;;;;;5033020;28;20049;-61
2023/10/30 00:04:05;;;;;;;12.88;2.15;;;;;;;;;;5030020;28;20044;-61
2023/10/30 00:06:32;;;;;;;10.95;1.65;;;;;;;;;;5025587;28;20075;-61
2023/10/30 00:08:58;;;;;;;13.82;2.90;;;;;;;;;;5026281;28;20147;-61
2023/10/30 00:11:25;;;;;;;13.98;3.10;;;;;;;;;;5036682;28;20047;-61
2023/10/30 00:13:51;;;;;;;15.05;2.65;;;;;;;;;;5041857;28;20501;-61
2023/10/30 00:16:17;;;;;;;16.88;2.40;;;;;;;;;;5041731;28;20416;-61
2023/10/30 00:18:43;;;;;;;11.00;2.10;;;;;;;;;;5040414;28;20037;-61
2023/10/30 00:21:09;;;;;;;16.67;2.08;;;;;;;;;;5040704;28;20039;-61
2023/10/30 00:23:36;;;;;;;3.88;1.13;;;;;;;;;;5038548;28;20136;-61
2023/10/30 00:26:03;;;;;;;10.50;1.77;;;;;;;;;;5041602;28;20047;-61
2023/10/30 00:28:30;;;;;;;13.13;2.20;;;;;;;;;;5041327;28;20130;-61
2023/10/30 00:30:56;;;;;;;10.30;1.67;;;;;;;;;;5043056;28;20053;-61
2023/10/30 00:33:23;;;;;;;5.88;1.27;;;;;;;;;;5044327;28;20151;-61
2023/10/30 00:35:49;;;;;;;9.73;1.73;;;;;;;;;;5045101;28;20119;-61
2023/10/30 00:38:15;;;;;;;13.15;1.70;;;;;;;;;;5045492;28;20053;-61
2023/10/30 00:40:41;;;;;;;7.18;1.30;;;;;;;;;;5043274;28;20076;-61
2023/10/30 00:43:07;;;;;;;14.13;1.75;;;;;;;;;;5044779;28;20045;-61
2023/10/30 00:45:33;;;;;;;10.00;2.22;;;;;;;;;;5045321;28;20469;-61
2023/10/30 00:48:00;;;;;;;5.85;1.17;;;;;;;;;;5043785;28;20052;-61
2023/10/30 00:50:26;;;;;;;12.23;1.63;;;;;;;;;;5044814;28;20037;-61
2023/10/30 00:52:52;;;;;;;6.22;1.00;;;;;;;;;;5044847;28;20052;-61
2023/10/30 00:55:19;;;;;;;6.43;1.38;;;;;;;;;;5044138;28;20048;-61
2023/10/30 00:57:45;;;;;;;6.35;1.35;;;;;;;;;;5045447;28;20037;-61
2023/10/30 01:00:11;;;;;;;7.68;1.80;;;;;;;;;;5043370;28;20048;-61
2023/10/30 01:02:39;;;;;;;5.38;1.10;;;;;;;;;;5042400;28;20163;-61
2023/10/30 01:05:06;;;;;;;5.55;1.10;;;;;;;;;;5045487;28;20049;-61
2023/10/30 01:07:32;;;;;;;7.70;1.10;;;;;;;;;;5026758;28;20048;-61
2023/10/30 01:09:58;;;;;;;6.35;1.05;;;;;;;;;;5042184;28;20037;-61
2023/10/30 01:12:24;;;;;;;6.43;1.00;;;;;;;;;;5044811;28;20045;-61
2023/10/30 01:14:50;;;;;;;10.57;1.40;;;;;;;;;;5044773;28;20508;-61
2023/10/30 01:17:16;;;;;;;6.18;1.27;;;;;;;;;;5026887;28;20373;-61
2023/10/30 01:19:43;;;;;;;10.57;1.25;;;;;;;;;;5042951;28;20346;-61
2023/10/30 01:22:09;;;;;;;8.18;1.48;;;;;;;;;;5046220;28;20037;-61
2023/10/30 01:24:35;;;;;;;5.28;1.35;;;;;;;;;;5044729;28;20409;-61
2023/10/30 01:27:01;;;;;;;8.23;1.25;;;;;;;;;;5051700;28;20057;-61
2023/10/30 01:29:27;;;;;;;7.53;1.60;;;;;;;;;;5040669;28;20080;-61
2023/10/30 01:31:54;;;;;;;7.72;1.30;;;;;;;;;;5048333;28;20397;-61
2023/10/30 01:34:20;;;;;;;10.27;1.30;;;;;;;;;;5050759;28;20094;-61
2023/10/30 01:36:46;;;;;;;6.10;1.33;;;;;;;;;;5049785;28;20045;-61
2023/10/30 01:39:12;;;;;;;7.03;1.08;;;;;;;;;;5049913;28;20064;-61
2023/10/30 01:41:41;;;;;;;6.25;1.30;;;;;;;;;;5050485;28;20128;-61
2023/10/30 01:44:08;;;;;;;8.45;1.10;;;;;;;;;;5049618;28;20040;-61
2023/10/30 01:46:34;;;;;;;11.35;2.13;;;;;;;;;;5049797;28;20033;-61
2023/10/30 01:49:00;;;;;;;6.45;1.17;;;;;;;;;;5047631;28;20071;-61
2023/10/30 01:51:27;;;;;;;6.97;1.20;;;;;;;;;;5043269;28;20052;-61
2023/10/30 01:53:53;;;;;;;13.98;1.13;;;;;;;;;;5046435;28;20125;-61
2023/10/30 01:56:20;;;;;;;8.73;1.60;;;;;;;;;;5043627;28;20555;-61
2023/10/30 01:58:46;;;;;;;4.85;0.85;;;;;;;;;;5042566;28;20398;-61
2023/10/30 02:01:12;;;;;;;11.02;1.60;;;;;;;;;;5025003;28;20058;-61
2023/10/30 02:03:39;;;;;;;6.85;1.00;;;;;;;;;;5047005;28;20118;-61
2023/10/30 02:06:05;;;;;;;12.40;1.25;;;;;;;;;;5046932;28;20044;-61
2023/10/30 02:08:31;;;;;;;5.90;1.17;;;;;;;;;;5041238;28;20107;-61
2023/10/30 02:10:57;;;;;;;9.98;1.52;;;;;;;;;;5046362;28;20071;-61
2023/10/30 02:13:24;;;;;;;5.57;0.85;;;;;;;;;;5042745;28;20128;-61
2023/10/30 02:15:50;;;;;;;6.75;1.00;;;;;;;;;;5043102;28;20571;-61
2023/10/30 02:18:16;;;;;;;6.32;1.30;;;;;;;;;;5041352;28;20488;-61
2023/10/30 02:20:42;;;;;;;7.20;0.88;;;;;;;;;;5039693;28;20079;-61
2023/10/30 02:23:08;;;;;;;5.57;0.98;;;;;;;;;;5040962;28;20444;-61
2023/10/30 02:25:35;;;;;;;4.25;1.05;;;;;;;;;;5043080;28;20081;-61
2023/10/30 02:28:01;;;;;;;7.20;0.93;;;;;;;;;;5041439;28;20044;-61
2023/10/30 02:30:27;;;;;;;5.15;0.75;;;;;;;;;;5043536;28;20076;-61
2023/10/30 02:32:53;;;;;;;6.93;1.27;;;;;;;;;;5042815;28;20045;-61
2023/10/30 02:35:19;;;;;;;7.85;1.02;;;;;;;;;;5041531;28;20056;-61
2023/10/30 02:37:46;;;;;;;6.78;0.77;;;;;;;;;;5041473;28;20062;-61
2023/10/30 02:40:12;;;;;;;4.07;0.80;;;;;;;;;;5043423;28;20029;-61
2023/10/30 02:42:39;;;;;;;3.67;0.70;;;;;;;;;;5044045;28;20098;-61
2023/10/30 02:45:06;;;;;;;4.53;1.35;;;;;;;;;;5042502;28;20045;-61
2023/10/30 02:47:32;;;;;;;7.70;1.35;;;;;;;;;;5042090;28;20037;-61
2023/10/30 02:49:59;;;;;;;7.25;1.00;;;;;;;;;;5023817;28;20041;-61
2023/10/30 02:52:25;;;;;;;7.90;1.05;;;;;;;;;;5042453;28;20549;-61
2023/10/30 02:54:51;;;;;;;4.43;1.05;;;;;;;;;;5024930;28;20048;-61
2023/10/30 02:57:17;;;;;;;6.90;1.27;;;;;;;;;;5042510;28;20048;-61
2023/10/30 02:59:43;;;;;;;8.77;1.52;;;;;;;;;;5044520;28;20496;-61
2023/10/30 03:02:09;;;;;;;6.88;1.40;;;;;;;;;;5045728;28;20378;-61
2023/10/30 03:04:35;;;;;;;10.20;1.85;;;;;;;;;;5046180;28;20033;-61
2023/10/30 03:07:02;;;;;;;7.88;1.67;;;;;;;;;;5049020;28;20106;-61
2023/10/30 03:09:28;;;;;;;8.02;1.83;;;;;;;;;;5046004;28;20033;-61
2023/10/30 03:11:55;;;;;;;8.68;2.05;;;;;;;;;;5048662;28;20397;-61
2023/10/30 03:14:21;;;;;;;9.00;2.00;;;;;;;;;;5043275;28;21334;-61
2023/10/30 03:16:48;;;;;;;9.73;2.30;;;;;;;;;;5048106;28;20049;-61
2023/10/30 03:19:14;;;;;;;10.10;2.47;;;;;;;;;;5043296;28;20132;-61
2023/10/30 03:21:40;;;;;;;9.00;2.20;;;;;;;;;;5030008;28;20051;-61
2023/10/30 03:24:06;;;;;;;10.55;2.72;;;;;;;;;;5045359;28;20110;-61
2023/10/30 03:26:33;;;;;;;9.57;2.30;;;;;;;;;;5048352;28;20041;-61
2023/10/30 03:28:59;;;;;;;12.07;2.45;;;;;;;;;;5048442;28;20053;-61
2023/10/30 03:31:26;;;;;;;9.30;2.55;;;;;;;;;;5048731;28;20545;-61
2023/10/30 03:33:52;;;;;;;10.70;2.80;;;;;;;;;;5048435;28;20037;-61
2023/10/30 03:36:24;;;;;;;13.50;3.33;;;;;;;;;;5048530;28;20540;-61
2023/10/30 03:38:53;;;;;;;10.65;2.53;;;;;;;;;;5049065;28;20133;-61
2023/10/30 03:41:19;;;;;;;11.80;2.78;;;;;;;;;;5047482;28;20128;-61
2023/10/30 03:43:46;;;;;;;13.38;3.17;;;;;;;;;;5048038;28;20052;-61
2023/10/30 03:46:12;;;;;;;11.35;3.00;;;;;;;;;;5047277;28;20070;-61
2023/10/30 03:48:38;;;;;;;11.90;2.80;;;;;;;;;;5047962;28;20404;-61
2023/10/30 03:51:05;;;;;;;7.70;2.20;;;;;;;;;;5030098;28;20052;-61
2023/10/30 03:53:32;;;;;;;10.75;2.47;;;;;;;;;;5047516;28;20041;-61
2023/10/30 03:55:58;;;;;;;13.82;2.65;;;;;;;;;;5049768;28;20098;-61
2023/10/30 03:58:25;;;;;;;11.15;2.80;;;;;;;;;;5047083;28;20096;-61
2023/10/30 04:00:51;;;;;;;18.67;2.80;;;;;;;;;;5047106;28;20052;-61
2023/10/30 04:03:18;;;;;;;11.48;2.60;;;;;;;;;;5047528;28;20561;-61
2023/10/30 04:05:44;;;;;;;12.98;2.72;;;;;;;;;;5047668;28;20119;-61
2023/10/30 04:08:10;;;;;;;8.77;2.67;;;;;;;;;;5051192;28;20044;-61
2023/10/30 04:10:37;;;;;;;12.45;2.65;;;;;;;;;;5053435;28;20052;-61
2023/10/30 04:13:03;;;;;;;12.93;2.55;;;;;;;;;;5051253;28;20121;-61
2023/10/30 04:15:29;;;;;;;10.82;2.20;;;;;;;;;;5047905;28;20083;-61
2023/10/30 04:17:56;;;;;;;14.07;3.25;;;;;;;;;;5050434;28;20045;-61
2023/10/30 04:20:22;;;;;;;17.48;4.13;;;;;;;;;;5052403;28;20040;-61
2023/10/30 04:22:49;;;;;;;19.67;3.67;;;;;;;;;;5049503;28;20095;-61
2023/10/30 04:25:15;;;;;;;15.27;2.72;;;;;;;;;;5049525;28;20040;-61
2023/10/30 04:27:42;;;;;;;17.30;3.45;;;;;;;;;;5050903;28;20485;-61
2023/10/30 04:30:08;;;;;;;12.65;2.78;;;;;;;;;;5051272;28;20057;-61
2023/10/30 04:32:34;;;;;;;11.10;2.60;;;;;;;;;;5052033;28;20093;-61
2023/10/30 04:35:00;;;;;;;21.50;4.38;;;;;;;;;;5045825;28;20117;-61
2023/10/30 04:37:27;;;;;;;19.23;3.50;;;;;;;;;;5047096;28;20112;-61
2023/10/30 04:39:53;;;;;;;12.68;2.83;;;;;;;;;;5049426;28;20045;-61
2023/10/30 04:42:19;;;;;;;13.90;3.70;;;;;;;;;;5046573;28;20370;-61
2023/10/30 04:44:45;;;;;;;15.90;3.10;;;;;;;;;;5044403;28;20041;-61
2023/10/30 04:47:11;;;;;;;16.30;2.63;;;;;;;;;;5043910;28;20037;-61
2023/10/30 04:49:38;;;;;;;13.90;2.67;;;;;;;;;;5042569;28;20053;-61
2023/10/30 04:52:04;;;;;;;14.98;2.80;;;;;;;;;;5045140;28;20171;-61
2023/10/30 04:54:31;;;;;;;9.95;2.25;;;;;;;;;;5046378;28;20733;-61
2023/10/30 04:56:57;;;;;;;15.63;3.55;;;;;;;;;;5044574;28;20690;-61
2023/10/30 04:59:23;;;;;;;14.90;2.70;;;;;;;;;;5044587;28;21696;-61
2023/10/30 05:01:49;;;;;;;17.33;2.42;;;;;;;;;;5051593;28;20179;-61
2023/10/30 05:04:17;;;;;;;19.23;2.45;;;;;;;;;;5047037;28;20092;-61
2023/10/30 05:06:43;;;;;;;24.40;3.90;;;;;;;;;;5044386;28;20148;-61
2023/10/30 05:09:10;;;;;;;19.70;2.33;;;;;;;;;;5045754;28;20130;-61
2023/10/30 05:11:39;;;;;;;17.85;3.03;;;;;;;;;;5026034;28;20057;-61
2023/10/30 05:14:06;;;;;;;19.88;3.08;;;;;;;;;;5043577;28;21602;-61
2023/10/30 05:16:33;;;;;;;10.95;3.58;;;;;;;;;;5043142;28;20063;-61
2023/10/30 05:19:00;;;;;;;13.27;2.67;;;;;;;;;;5043467;28;20616;-61
2023/10/30 05:21:26;;;;;;;13.43;2.15;;;;;;;;;;5044051;28;20488;-61
2023/10/30 05:23:52;;;;;;;18.80;2.38;;;;;;;;;;5042942;28;20148;-61
2023/10/30 05:26:18;;;;;;;15.82;2.92;;;;;;;;;;5044525;28;20116;-61
2023/10/30 05:28:44;;;;;;;19.15;2.70;;;;;;;;;;5043396;28;20061;-61
2023/10/30 05:31:10;;;;;;;21.15;3.80;;;;;;;;;;5047582;28;20409;-61
2023/10/30 05:33:37;;;;;;;15.45;2.40;;;;;;;;;;5050827;28;20049;-61
2023/10/30 05:36:04;;;;;;;18.25;2.97;;;;;;;;;;5046746;28;20076;-61
2023/10/30 05:38:30;;;;;;;12.60;2.10;;;;;;;;;;5042983;28;20053;-61
2023/10/30 05:40:56;;;;;;;18.40;2.85;;;;;;;;;;5043147;28;20120;-61
2023/10/30 05:43:22;;;;;;;19.88;2.45;;;;;;;;;;5043316;28;20041;-61
2023/10/30 05:45:49;;;;;;;16.23;2.60;;;;;;;;;;5047201;28;20045;-61
2023/10/30 05:48:15;;;;;;;21.85;3.28;;;;;;;;;;5042172;28;20047;-61
2023/10/30 05:50:42;;;;;;;19.75;2.85;;;;;;;;;;5042119;28;20049;-61
2023/10/30 05:53:08;;;;;;;16.95;3.28;;;;;;;;;;5043922;28;20124;-61
2023/10/30 05:55:34;;;;;;;20.48;3.67;;;;;;;;;;5028327;28;20109;-61
2023/10/30 05:58:01;;;;;;;14.15;2.72;;;;;;;;;;5043054;28;20040;-61
2023/10/30 06:00:29;;;;;;;15.85;2.80;;;;;;;;;;5043461;28;20075;-61
2023/10/30 06:02:55;;;;;;;19.17;2.90;;;;;;;;;;5042330;28;20037;-61
2023/10/30 06:05:21;;;;;;;16.63;2.67;;;;;;;;;;5044637;28;20036;-61
2023/10/30 06:07:48;;;;;;;21.10;3.38;;;;;;;;;;5044393;28;20140;-62
2023/10/30 06:10:16;;;;;;;13.57;2.97;;;;;;;;;;5045799;28;20060;-61
2023/10/30 06:12:44;;;;;;;14.40;2.65;;;;;;;;;;5039979;28;20767;-61
2023/10/30 06:15:10;;;;;;;17.52;2.67;;;;;;;;;;5042880;28;20060;-61
2023/10/30 06:17:36;;;;;;;17.35;2.83;;;;;;;;;;5044030;28;20464;-61
2023/10/30 06:20:03;;;;;;;22.02;3.15;;;;;;;;;;5041298;28;20037;-61
2023/10/30 06:22:29;;;;;;;12.27;2.72;;;;;;;;;;5041876;28;20045;-61
2023/10/30 06:24:58;;;;;;;15.35;3.53;;;;;;;;;;5042256;28;20154;-62
2023/10/30 06:27:24;;;;;;;27.65;3.58;;;;;;;;;;5044634;28;20124;-61
2023/10/30 06:29:50;;;;;;;17.10;2.53;;;;;;;;;;5049304;28;20138;-61
2023/10/30 06:32:16;;;;;;;18.13;2.97;;;;;;;;;;5048353;28;20087;-62
2023/10/30 06:34:42;;;;;;;13.38;2.47;;;;;;;;;;5049567;28;20045;-61
2023/10/30 06:37:09;;;;;;;18.00;3.03;;;;;;;;;;5051979;28;20045;-62
2023/10/30 06:39:37;;;;;;;18.33;2.72;;;;;;;;;;5045756;28;20061;-60
2023/10/30 06:42:03;;;;;;;20.45;2.83;;;;;;;;;;5046774;28;20079;-61
2023/10/30 06:44:30;;;;;;;19.48;3.28;;;;;;;;;;5049231;28;20048;-61
2023/10/30 06:46:57;;;;;;;21.90;3.40;;;;;;;;;;5050021;28;20073;-63
2023/10/30 06:49:24;;;;;;;22.60;3.55;;;;;;;;;;5048609;28;20436;-60
2023/10/30 06:51:51;;;;;;;26.08;3.80;;;;;;;;;;5042525;28;20059;-60
2023/10/30 06:54:17;;;;;;;13.88;2.70;;;;;;;;;;5049272;28;20125;-61
2023/10/30 06:56:43;;;;;;;18.63;3.00;;;;;;;;;;5045625;28;20037;-61
2023/10/30 06:59:12;;;;;;;17.25;3.17;;;;;;;;;;5047124;28;20049;-61
2023/10/30 07:01:46;;;;;;;23.92;3.95;;;;;;;;;;5043988;28;20037;-61
2023/10/30 07:04:13;;;;;;;20.65;4.05;;;;;;;;;;5025186;28;20044;-61
2023/10/30 07:06:40;;;;;;;19.90;2.40;;;;;;;;;;5049341;28;20378;-61
2023/10/30 07:09:07;;;;;;;17.52;2.90;;;;;;;;;;5049966;28;20041;-61
2023/10/30 07:11:36;;;;;;;13.48;2.97;;;;;;;;;;5049081;28;20041;-61
2023/10/30 07:14:03;;;;;;;16.73;3.35;;;;;;;;;;5045855;28;20497;-61
2023/10/30 07:16:29;;;;;;;19.77;3.28;;;;;;;;;;5047369;28;20052;-61
2023/10/30 07:18:59;;;;;;;15.32;2.80;;;;;;;;;;5049137;28;20357;-61
2023/10/30 07:21:28;;;;;;;20.70;3.28;;;;;;;;;;5049818;28;20086;-61
2023/10/30 07:23:55;;;;;;;18.13;3.55;;;;;;;;;;5048592;28;20079;-61
2023/10/30 07:26:21;;;;;;;12.93;3.47;;;;;;;;;;5050361;28;20033;-61
2023/10/30 07:28:49;;;;;;;20.60;3.38;;;;;;;;;;5049404;28;20508;-61
2023/10/30 07:31:17;;;;;;;13.70;2.58;;;;;;;;;;5049562;28;20064;-62
2023/10/30 07:33:44;;;;;;;16.17;3.25;;;;;;;;;;5028817;28;20186;-61
2023/10/30 07:36:10;;;;;;;17.42;3.40;;;;;;;;;;5049186;28;20091;-61
2023/10/30 07:38:36;;;;;;;16.65;3.53;;;;;;;;;;5048977;28;20040;-61
2023/10/30 07:41:03;;;;;;;23.33;3.20;;;;;;;;;;5050318;28;20067;-61
2023/10/30 07:43:29;;;;;;;15.43;3.47;;;;;;;;;;5030614;28;20035;-61
2023/10/30 07:45:56;;;;;;;16.65;3.22;;;;;;;;;;5053383;28;20170;-62
2023/10/30 07:48:22;;;;;;;21.30;3.17;;;;;;;;;;5054286;28;20047;-62
2023/10/30 07:50:50;;;;;;;16.65;3.45;;;;;;;;;;5053551;28;20078;-61
2023/10/30 07:53:16;;;;;;;18.92;3.17;;;;;;;;;;5053862;28;20053;-61
2023/10/30 07:55:42;;;;;;;19.67;3.17;;;;;;;;;;5054007;28;20045;-61
2023/10/30 07:58:09;;;;;;;15.50;2.78;;;;;;;;;;5052982;28;20041;-61
2023/10/30 08:00:36;;;;;;;19.63;2.35;;;;;;;;;;5048532;28;20072;-61
2023/10/30 08:03:03;;;;;;;19.08;4.80;;;;;;;;;;5051404;28;20060;-62
2023/10/30 08:05:33;;;;;;;11.52;2.30;;;;;;;;;;5035207;28;20048;-62
2023/10/30 08:07:59;;;;;;;15.70;2.90;;;;;;;;;;5052777;28;20041;-62
2023/10/30 08:10:30;;;;;;;18.85;3.15;;;;;;;;;;5053040;28;20049;-61
2023/10/30 08:12:56;;;;;;;13.70;2.85;;;;;;;;;;5047124;28;20445;-61
2023/10/30 08:15:22;;;;;;;11.18;2.20;;;;;;;;;;5052838;28;20484;-61
2023/10/30 08:17:49;;;;;;;12.55;3.08;;;;;;;;;;5052415;28;20041;-62
2023/10/30 08:20:15;;;;;;;17.10;4.70;;;;;;;;;;5053405;28;20061;-62
2023/10/30 08:22:41;;;;;;;11.05;2.20;;;;;;;;;;5047186;28;20057;-61
2023/10/30 08:25:07;;;;;;;18.38;2.70;;;;;;;;;;5048609;28;20052;-61
2023/10/30 08:27:33;;;;;;;15.57;2.72;;;;;;;;;;5053566;28;20045;-61
2023/10/30 08:30:00;;;;;;;14.38;2.63;;;;;;;;;;5048613;28;20594;-61
2023/10/30 08:32:26;;;;;;;14.32;3.10;;;;;;;;;;5043789;28;20075;-61
2023/10/30 08:34:54;;;;;;;19.80;3.22;;;;;;;;;;5053256;28;20485;-61
2023/10/30 08:37:21;;;;;;;18.52;2.97;;;;;;;;;;5049868;28;20049;-61
2023/10/30 08:39:47;;;;;;;16.92;3.00;;;;;;;;;;5049372;28;20041;-61
2023/10/30 08:42:13;;;;;;;12.50;3.47;;;;;;;;;;5045249;28;20087;-62
2023/10/30 08:44:39;;;;;;;21.08;3.88;;;;;;;;;;5051917;28;20112;-61
2023/10/30 08:47:05;;;;;;;21.67;3.15;;;;;;;;;;5052514;28;20037;-61
2023/10/30 08:49:32;;;;;;;23.27;3.45;;;;;;;;;;5051799;28;20048;-61
2023/10/30 08:51:59;;;;;;;16.15;3.03;;;;;;;;;;5046403;28;20441;-61
2023/10/30 08:54:26;;;;;;;17.88;3.53;;;;;;;;;;5050741;28;20043;-62
2023/10/30 08:56:52;;;;;;;24.67;5.95;;;;;;;;;;5049952;28;20049;-61
2023/10/30 08:59:18;;;;;;;18.65;3.75;;;;;;;;;;5048756;28;20400;-61
2023/10/30 09:01:44;;;;;;;15.75;3.50;;;;;;;;;;5051366;28;20189;-62
2023/10/30 09:04:10;;;;;;;16.15;3.15;;;;;;;;;;5051672;28;20045;-62
2023/10/30 09:06:37;;;;;;;15.45;2.83;;;;;;;;;;5048441;28;20063;-61
2023/10/30 09:09:03;;;;;;;33.30;4.40;;;;;;;;;;5044673;28;20044;-62
2023/10/30 09:11:29;;;;;;;18.27;3.40;;;;;;;;;;5051494;28;20048;-61
2023/10/30 09:13:55;;;;;;;17.27;2.78;;;;;;;;;;5051938;28;20053;-61
2023/10/30 09:16:21;;;;;;;12.23;3.10;;;;;;;;;;5052477;28;20481;-61
2023/10/30 09:18:48;;;;;;;12.73;2.45;;;;;;;;;;5051812;28;20052;-61
2023/10/30 09:21:14;;;;;;;14.30;2.75;;;;;;;;;;5049217;28;20131;-61
2023/10/30 09:23:43;;;;;;;16.80;3.53;;;;;;;;;;5047895;28;20614;-62
2023/10/30 09:26:10;;;;;;;14.23;2.83;;;;;;;;;;5053681;28;20438;-61
2023/10/30 09:28:36;;;;;;;14.65;3.10;;;;;;;;;;5031210;28;20081;-62
2023/10/30 09:31:03;;;;;;;10.57;2.38;;;;;;;;;;5051212;28;20077;-61
2023/10/30 09:33:29;;;;;;;10.65;2.60;;;;;;;;;;5051956;28;20576;-62
2023/10/30 09:35:56;;;;;;;18.33;3.17;;;;;;;;;;5050986;28;20103;-63
2023/10/30 09:38:25;;;;;;;11.20;2.35;;;;;;;;;;5049210;28;20040;-62
2023/10/30 09:40:57;;;;;;;14.98;2.67;;;;;;;;;;5051993;28;20511;-61
2023/10/30 09:43:26;;;;;;;11.80;2.40;;;;;;;;;;5051303;28;20043;-61
2023/10/30 09:45:54;;;;;;;15.88;3.05;;;;;;;;;;5050240;28;20469;-62
2023/10/30 09:48:20;;;;;;;16.95;2.78;;;;;;;;;;5051665;28;20049;-61
2023/10/30 09:50:46;;;;;;;15.13;3.30;;;;;;;;;;5051247;28;20049;-61
2023/10/30 09:53:13;;;;;;;10.98;2.33;;;;;;;;;;5050461;28;20041;-62
2023/10/30 09:55:40;;;;;;;14.38;2.67;;;;;;;;;;5049623;28;20480;-62
2023/10/30 09:58:07;;;;;;;14.40;2.83;;;;;;;;;;5051089;28;20072;-62
2023/10/30 10:00:34;;;;;;;16.95;3.63;;;;;;;;;;5051741;28;20124;-62
2023/10/30 10:03:00;;;;;;;15.35;3.30;;;;;;;;;;5048994;28;20037;-60
2023/10/30 10:05:26;;;;;;;13.30;2.80;;;;;;;;;;5051091;28;20087;-61
2023/10/30 10:07:52;;;;;;;15.93;3.42;;;;;;;;;;5050529;28;20430;-61
2023/10/30 10:10:19;;;;;;;18.27;3.05;;;;;;;;;;5041580;28;20109;-61
2023/10/30 10:12:50;;;;;;;10.05;2.30;;;;;;;;;;5029787;28;20172;-61
2023/10/30 10:15:16;;;;;;;14.48;3.00;;;;;;;;;;5045837;28;20124;-61
2023/10/30 10:17:44;;;;;;;17.15;2.78;;;;;;;;;;5036229;28;20044;-61
2023/10/30 10:20:11;;;;;;;19.25;2.67;;;;;;;;;;5050642;28;20073;-62
2023/10/30 10:22:37;;;;;;;11.43;2.53;;;;;;;;;;5050476;28;20044;-62
2023/10/30 10:25:04;;;;;;;11.63;2.53;;;;;;;;;;5048940;28;20045;-61
2023/10/30 10:27:30;;;;;;;15.52;2.92;;;;;;;;;;5049240;28;20117;-61
2023/10/30 10:29:57;;;;;;;13.43;2.97;;;;;;;;;;5051091;28;20076;-61
2023/10/30 10:32:27;;;;;;;16.52;2.83;;;;;;;;;;5050552;28;20083;-62
2023/10/30 10:34:54;;;;;;;16.35;2.42;;;;;;;;;;5050880;28;20397;-61
2023/10/30 10:37:20;;;;;;;11.98;2.63;;;;;;;;;;5047214;28;20120;-61
2023/10/30 10:39:47;;;;;;;20.77;4.47;;;;;;;;;;5047403;28;20124;-61
2023/10/30 10:42:14;;;;;;;17.50;3.58;;;;;;;;;;5050052;28;20496;-61
2023/10/30 10:44:42;;;;;;;15.90;2.50;;;;;;;;;;5050871;28;20036;-62
2023/10/30 10:47:08;;;;;;;11.20;2.78;;;;;;;;;;5048213;28;20036;-62
2023/10/30 10:49:34;;;;;;;19.73;2.92;;;;;;;;;;5051075;28;20048;-63
2023/10/30 10:52:01;;;;;;;12.90;2.55;;;;;;;;;;5050476;28;20045;-62
2023/10/30 10:54:28;;;;;;;12.55;2.53;;;;;;;;;;5048555;28;20372;-62
2023/10/30 10:56:54;;;;;;;20.35;3.58;;;;;;;;;;5048974;28;20037;-62
2023/10/30 10:59:22;;;;;;;13.05;2.85;;;;;;;;;;5049571;28;20045;-61
2023/10/30 11:01:50;;;;;;;12.20;3.55;;;;;;;;;;5050570;28;20098;-61
2023/10/30 11:04:16;;;;;;;17.58;4.13;;;;;;;;;;5050900;28;20051;-62
2023/10/30 11:06:46;;;;;;;17.08;2.78;;;;;;;;;;5048025;28;20091;-62
2023/10/30 11:09:19;;;;;;;15.07;3.63;;;;;;;;;;5049577;28;20056;-62
2023/10/30 11:11:47;;;;;;;13.68;2.78;;;;;;;;;;5050162;28;20067;-62
2023/10/30 11:14:16;;;;;;;15.75;2.50;;;;;;;;;;5049593;28;20059;-62
2023/10/30 11:16:56;;;;;;;13.45;4.15;;;;;;;;;;5047229;28;20041;-62
2023/10/30 11:19:23;;;;;;;16.40;3.08;;;;;;;;;;5041341;28;20496;-62
2023/10/30 11:21:49;;;;;;;14.75;2.70;;;;;;;;;;5049706;28;20388;-62
2023/10/30 11:24:34;;;;;;;10.82;2.45;;;;;;;;;;5049668;28;20128;-62
2023/10/30 11:27:00;;;;;;;11.73;2.55;;;;;;;;;;5044131;28;20489;-62
2023/10/30 11:29:46;;;;;;;13.65;2.30;;;;;;;;;;5038767;28;20076;-62
2023/10/30 11:32:14;;;;;;;12.02;2.92;;;;;;;;;;5050180;28;20489;-62
2023/10/30 11:34:43;;;;;;;15.52;2.90;;;;;;;;;;5049628;28;20057;-62
2023/10/30 11:37:10;;;;;;;15.27;3.17;;;;;;;;;;5049680;28;20513;-62
2023/10/30 11:39:37;;;;;;;12.45;2.30;;;;;;;;;;5049667;28;20041;-62
2023/10/30 11:42:04;;;;;;;15.10;2.40;;;;;;;;;;5031373;28;20354;-62
2023/10/30 11:44:31;;;;;;;11.43;2.13;;;;;;;;;;5050293;28;20511;-62
2023/10/30 11:46:58;;;;;;;16.48;3.47;;;;;;;;;;5047716;28;20610;-61
2023/10/30 11:49:30;;;;;;;14.43;2.45;;;;;;;;;;5049452;28;20464;-62
2023/10/30 11:51:57;;;;;;;12.17;2.70;;;;;;;;;;5050056;28;20120;-61
2023/10/30 11:54:30;;;;;;;22.35;4.05;;;;;;;;;;5049264;28;20405;-62
2023/10/30 11:56:56;;;;;;;15.77;1.90;;;;;;;;;;5047789;28;20489;-62
2023/10/30 11:59:22;;;;;;;15.02;2.63;;;;;;;;;;5050263;28;20084;-62
2023/10/30 12:01:49;;;;;;;11.43;2.28;;;;;;;;;;5045363;28;20037;-62
2023/10/30 12:04:22;;;;;;;15.55;3.45;;;;;;;;;;5047403;28;20471;-61
2023/10/30 12:06:48;;;;;;;17.60;2.38;;;;;;;;;;5050001;28;20041;-62
2023/10/30 12:09:15;;;;;;;12.52;2.53;;;;;;;;;;5049948;28;20048;-62
2023/10/30 12:11:41;;;;;;;11.80;2.85;;;;;;;;;;5046502;28;20539;-61
2023/10/30 12:14:07;;;;;;;11.35;2.05;;;;;;;;;;5042013;28;20151;-62
2023/10/30 12:16:37;;;;;;;11.45;2.55;;;;;;;;;;5049372;28;20429;-61
2023/10/30 12:19:03;;;;;;;13.23;2.30;;;;;;;;;;5049801;28;20076;-61
2023/10/30 12:21:30;;;;;;;13.32;2.10;;;;;;;;;;5048213;28;20041;-61
2023/10/30 12:23:57;;;;;;;14.43;3.30;;;;;;;;;;5049133;28;20095;-61
2023/10/30 12:26:24;;;;;;;16.95;2.63;;;;;;;;;;5049233;28;20037;-61
2023/10/30 12:28:50;;;;;;;19.35;2.80;;;;;;;;;;5051319;28;20513;-61
2023/10/30 12:31:17;;;;;;;13.77;2.75;;;;;;;;;;5052633;28;20037;-61
2023/10/30 12:33:43;;;;;;;9.73;2.25;;;;;;;;;;5051620;28;20100;-61
2023/10/30 12:36:10;;;;;;;13.93;2.70;;;;;;;;;;5053372;28;20150;-61
2023/10/30 12:38:36;;;;;;;12.93;3.25;;;;;;;;;;5052716;28;20392;-61
2023/10/30 12:41:06;;;;;;;11.15;2.70;;;;;;;;;;5051030;28;20563;-61
2023/10/30 12:43:41;;;;;;;12.90;2.25;;;;;;;;;;5040325;28;20450;-61
2023/10/30 12:46:08;;;;;;;12.07;2.38;;;;;;;;;;5051276;28;20079;-61
2023/10/30 12:48:35;;;;;;;12.23;3.15;;;;;;;;;;5052724;28;20060;-61
2023/10/30 12:51:01;;;;;;;12.63;2.60;;;;;;;;;;5049202;28;20107;-61
2023/10/30 12:53:27;;;;;;;18.35;2.85;;;;;;;;;;5050006;28;20396;-61
2023/10/30 12:55:53;;;;;;;13.35;2.70;;;;;;;;;;5052275;28;20044;-61
2023/10/30 12:58:20;;;;;;;11.00;3.05;;;;;;;;;;5053114;28;20099;-61
2023/10/30 13:00:46;;;;;;;13.23;2.55;;;;;;;;;;5052000;28;20045;-61
2023/10/30 13:03:12;;;;;;;13.90;3.00;;;;;;;;;;5051149;28;20098;-61
2023/10/30 13:05:39;;;;;;;14.98;3.15;;;;;;;;;;5052559;28;20052;-61
2023/10/30 13:08:05;;;;;;;16.08;2.70;;;;;;;;;;5051758;28;20397;-61
2023/10/30 13:10:31;;;;;;;15.45;3.78;;;;;;;;;;5052149;28;20190;-61
2023/10/30 13:12:57;;;;;;;12.75;3.33;;;;;;;;;;5051699;28;20489;-61
2023/10/30 13:15:24;;;;;;;13.57;2.97;;;;;;;;;;5052923;28;20044;-61
2023/10/30 13:17:50;;;;;;;12.88;2.80;;;;;;;;;;5018405;28;20143;-61
2023/10/30 13:20:16;;;;;;;13.07;2.33;;;;;;;;;;5038815;28;20077;-67
2023/10/30 13:22:42;;;;;;;12.68;2.65;;;;;;;;;;5032181;28;20045;-69
2023/10/30 13:25:09;;;;;;;10.25;2.67;;;;;;;;;;5029275;28;20146;-60
2023/10/30 13:27:35;;;;;;;23.13;3.83;;;;;;;;;;5043062;28;20065;-61
2023/10/30 13:30:04;;;;;;;16.95;2.45;;;;;;;;;;5044090;28;20059;-61
2023/10/30 13:32:30;;;;;;;13.23;2.63;;;;;;;;;;5045544;28;20052;-61
2023/10/30 13:34:56;;;;;;;18.73;3.25;;;;;;;;;;5032015;28;20042;-61
2023/10/30 13:37:22;;;;;;;13.88;2.70;;;;;;;;;;5043018;28;20042;-61
2023/10/30 13:39:49;;;;;;;15.30;2.38;;;;;;;;;;5052411;28;20041;-61
2023/10/30 13:42:15;;;;;;;15.85;3.60;;;;;;;;;;5050522;28;20156;-61
2023/10/30 13:44:41;;;;;;;14.18;3.10;;;;;;;;;;5052503;28;20033;-61
2023/10/30 13:47:08;;;;;;;17.48;2.88;;;;;;;;;;5052207;28;20128;-61
2023/10/30 13:49:34;;;;;;;20.77;3.20;;;;;;;;;;5051589;28;20041;-61
2023/10/30 13:52:00;;;;;;;11.30;2.55;;;;;;;;;;5049087;28;20044;-61
2023/10/30 13:54:26;;;;;;;15.95;3.10;;;;;;;;;;5051962;28;20045;-61
2023/10/30 13:56:53;;;;;;;10.07;2.60;;;;;;;;;;5049979;28;20498;-61
2023/10/30 13:59:19;;;;;;;15.20;3.55;;;;;;;;;;5040009;28;20405;-60
2023/10/30 14:01:45;;;;;;;14.98;3.03;;;;;;;;;;5040239;28;20037;-61
2023/10/30 14:04:11;;;;;;;13.82;2.55;;;;;;;;;;5050167;28;20037;-61
2023/10/30 14:06:37;;;;;;;12.20;2.90;;;;;;;;;;5051783;28;20064;-61
2023/10/30 14:09:04;;;;;;;13.50;2.67;;;;;;;;;;5049522;28;20049;-61
2023/10/30 14:11:30;;;;;;;17.85;3.13;;;;;;;;;;5041468;28;20092;-61
2023/10/30 14:13:56;;;;;;;12.25;2.65;;;;;;;;;;5049765;28;20044;-61
2023/10/30 14:16:23;;;;;;;12.40;2.22;;;;;;;;;;5043818;28;20049;-61
2023/10/30 14:18:49;;;;;;;19.17;3.10;;;;;;;;;;5048923;28;20254;-61
2023/10/30 14:21:16;;;;;;;14.43;2.60;;;;;;;;;;5029344;28;20481;-61
2023/10/30 14:23:42;;;;;;;15.73;3.10;;;;;;;;;;5044435;28;20115;-62
2023/10/30 14:26:08;;;;;;;11.68;2.33;;;;;;;;;;5050002;28;20041;-61
2023/10/30 14:28:35;;;;;;;14.68;3.00;;;;;;;;;;5049894;28;20060;-62
2023/10/30 14:31:01;;;;;;;15.88;2.65;;;;;;;;;;5049482;28;20128;-62